GCTS/TFS METAR and TAF weather

Enter ICAO airport designator
Station Type Date Time Source
GCTS METAR 2019/10/21 04:30 UTC NOAA

GCTS 210430Z 06010KT 010V080 9999 BKN040 21/12 Q1016 NOSIG


Station Type Date Time Source
GCTS Decoded METAR 2019/10/21 04:30 UTC NOAA

Tenerife Sur, Spain (GCTS) 28-03N 016-34W 77M
Oct 21, 2019 - 12:30 AM EDT / 2019.10.21 0430 UTC
Wind: from the ENE (060 degrees) at 12 MPH (10 KT) (direction variable):0
Visibility: greater than 7 mile(s):0
Sky conditions: mostly cloudy
Temperature: 69 F (21 C)
Dew Point: 53 F (12 C)
Relative Humidity: 56%
Pressure (altimeter): 30.00 in. Hg (1016 hPa)
ob: GCTS 210430Z 06010KT 010V080 9999 BKN040 21/12 Q1016 NOSIG
cycle: 4

Station Type Date Time Source
GCTS TAF 2019/10/21 03:31 UTC NOAA

TAF GCTS 210200Z 2103/2203 04014KT 9999 BKN035 TX25/2114Z TN18/2105Z

Example: see airport list